createdAt,value
2022-09-28T04:31:01.949Z,27.20
2022-09-28T04:32:02.008Z,30.10
2022-09-28T04:33:01.889Z,28.60
2022-09-28T04:34:01.899Z,31.50
2022-09-28T04:35:01.872Z,27.60
2022-09-28T04:36:01.848Z,25.60
2022-09-28T04:37:01.839Z,27.40
2022-09-28T04:38:01.837Z,27.10
2022-09-28T04:39:01.828Z,27.40
2022-09-28T04:40:01.806Z,25.30
2022-09-28T04:41:01.821Z,27.80
2022-09-28T04:42:01.773Z,26.40
2022-09-28T04:43:01.758Z,28.20
2022-09-28T04:44:01.783Z,27.20
2022-09-28T04:45:01.755Z,28.70
2022-09-28T04:46:08.816Z,28.20
2022-09-28T04:47:05.047Z,28.40
2022-09-28T04:48:01.704Z,28.40
2022-09-28T04:49:01.683Z,30.70
2022-09-28T04:50:01.685Z,27.50
2022-09-28T04:51:01.661Z,29.40
2022-09-28T04:52:01.649Z,29.00
2022-09-28T04:53:01.671Z,33.70
2022-09-28T04:54:01.613Z,29.30
2022-09-28T04:55:01.616Z,27.90
2022-09-28T04:56:01.601Z,32.20
2022-09-28T04:57:01.588Z,32.80
2022-09-28T04:58:01.562Z,30.50
2022-09-28T04:59:01.557Z,30.00
2022-09-28T05:00:01.557Z,28.00
2022-09-28T05:01:01.612Z,30.50
2022-09-28T05:02:01.589Z,27.00
2022-09-28T05:03:01.499Z,31.40
2022-09-28T05:04:01.524Z,25.70
2022-09-28T05:05:01.481Z,38.30
2022-09-28T05:06:01.487Z,28.10
2022-09-28T05:07:01.450Z,24.90
2022-09-28T05:08:01.440Z,30.30
2022-09-28T05:09:01.431Z,24.60
2022-09-28T05:10:01.427Z,25.10
2022-09-28T05:11:01.390Z,26.10
2022-09-28T05:12:01.390Z,23.40
2022-09-28T05:13:01.397Z,22.50
2022-09-28T05:14:01.360Z,23.20
2022-09-28T05:15:01.349Z,20.30
2022-09-28T05:16:05.188Z,25.40
2022-09-28T05:17:01.466Z,24.60
2022-09-28T05:18:01.369Z,22.60
2022-09-28T05:19:01.324Z,25.20
2022-09-28T05:20:01.336Z,27.30
2022-09-28T05:21:01.269Z,23.50
2022-09-28T05:22:01.258Z,23.30
2022-09-28T05:23:01.265Z,21.60
2022-09-28T05:24:01.228Z,20.70
2022-09-28T05:25:01.259Z,22.70
2022-09-28T05:26:01.207Z,22.80
2022-09-28T05:27:01.188Z,22.30
2022-09-28T05:28:01.178Z,24.80
2022-09-28T05:29:01.167Z,23.40
2022-09-28T05:30:01.167Z,23.30
2022-09-28T05:31:01.137Z,23.80
2022-09-28T05:32:01.175Z,25.40
2022-09-28T05:33:01.118Z,29.00
2022-09-28T05:34:01.097Z,23.80
2022-09-28T05:35:01.144Z,30.00
2022-09-28T05:36:01.897Z,26.50
2022-09-28T05:37:01.093Z,24.70
2022-09-28T05:38:01.066Z,24.00
2022-09-28T05:39:01.045Z,23.60
2022-09-28T05:40:01.048Z,28.10
2022-09-28T05:41:05.743Z,27.50
2022-09-28T05:42:02.005Z,26.70
2022-09-28T05:43:00.986Z,32.70
2022-09-28T05:44:01.015Z,27.20
2022-09-28T05:45:00.974Z,30.40
2022-09-28T05:46:01.023Z,30.20
2022-09-28T05:47:00.934Z,27.90
2022-09-28T05:48:00.933Z,29.40
2022-09-28T05:49:00.903Z,28.70
2022-09-28T05:50:00.915Z,28.10
2022-09-28T05:51:00.883Z,29.70
2022-09-28T05:52:00.874Z,33.60
2022-09-28T05:53:00.855Z,32.20
2022-09-28T05:54:05.660Z,32.30
2022-09-28T05:55:01.854Z,34.90
2022-09-28T05:56:00.813Z,35.30
2022-09-28T05:57:00.803Z,33.40
2022-09-28T05:58:00.792Z,32.90
2022-09-28T05:59:00.784Z,35.10
2022-09-28T06:00:00.784Z,34.40
2022-09-28T06:01:00.798Z,38.60
2022-09-28T06:02:00.825Z,34.30
2022-09-28T06:03:01.935Z,37.50
2022-09-28T06:04:00.711Z,35.10
2022-09-28T06:05:00.710Z,37.80
2022-09-28T06:06:00.692Z,38.20
2022-09-28T06:07:00.672Z,42.20
2022-09-28T06:08:00.661Z,39.00
2022-09-28T06:09:00.645Z,38.30
2022-09-28T06:10:00.650Z,36.40
2022-09-28T06:11:00.620Z,40.70
2022-09-28T06:12:00.610Z,34.70
2022-09-28T06:13:00.598Z,39.90
2022-09-28T06:14:00.586Z,40.50
2022-09-28T06:15:00.581Z,42.10
2022-09-28T06:16:00.559Z,38.90
2022-09-28T06:17:00.563Z,37.20
2022-09-28T06:18:00.530Z,38.70
2022-09-28T06:19:00.518Z,38.10
2022-09-28T06:20:00.508Z,39.50
2022-09-28T06:21:00.510Z,35.80
2022-09-28T06:22:00.482Z,36.50
2022-09-28T06:23:00.463Z,32.90
2022-09-28T06:24:00.459Z,36.00
2022-09-28T06:25:00.440Z,33.60
2022-09-28T06:26:00.442Z,35.70
2022-09-28T06:27:00.413Z,32.10
2022-09-28T06:28:00.418Z,36.90
2022-09-28T06:29:00.388Z,33.00
2022-09-28T06:30:00.382Z,32.80
2022-09-28T06:31:00.431Z,31.00
2022-09-28T06:32:00.353Z,31.80
2022-09-28T06:33:00.337Z,32.20
2022-09-28T06:34:00.327Z,27.80
2022-09-28T06:35:00.309Z,32.90
2022-09-28T06:36:00.319Z,34.60
2022-09-28T06:37:00.288Z,31.70
2022-09-28T06:38:00.294Z,36.10
2022-09-28T06:39:00.258Z,33.70
2022-09-28T06:40:00.258Z,34.30
2022-09-28T06:41:00.305Z,37.70
2022-09-28T06:42:00.228Z,33.70
2022-09-28T06:43:00.206Z,30.90
2022-09-28T06:44:00.205Z,32.60
2022-09-28T06:45:00.187Z,33.50
2022-09-28T06:46:00.222Z,31.10
2022-09-28T06:47:00.169Z,29.00
2022-09-28T06:48:00.154Z,34.40
2022-09-28T06:49:00.138Z,34.70
2022-09-28T06:50:00.159Z,31.70
2022-09-28T06:51:00.127Z,33.50
2022-09-28T06:52:00.099Z,36.10
2022-09-28T06:53:00.090Z,33.80
2022-09-28T06:54:00.088Z,32.00
2022-09-28T06:55:00.076Z,34.20
2022-09-28T06:56:00.072Z,33.40
2022-09-28T06:57:00.036Z,34.10
2022-09-28T06:58:00.023Z,34.30
2022-09-28T06:59:00.013Z,32.50
2022-09-28T06:59:59.995Z,32.70
2022-09-28T07:01:00.078Z,36.00
2022-09-28T07:02:00.066Z,31.10
2022-09-28T07:02:59.953Z,34.90
2022-09-28T07:03:59.944Z,33.10
2022-09-28T07:04:59.930Z,33.20
2022-09-28T07:05:59.943Z,29.50
2022-09-28T07:06:59.904Z,28.90
2022-09-28T07:07:59.893Z,34.30
2022-09-28T07:09:14.867Z,31.40
2022-09-28T07:10:00.873Z,30.20
2022-09-28T07:10:59.865Z,31.80
2022-09-28T07:11:59.872Z,27.40
2022-09-28T07:12:59.823Z,29.90
2022-09-28T07:13:59.821Z,28.40
2022-09-28T07:14:59.802Z,30.30
2022-09-28T07:15:59.813Z,30.60
2022-09-28T07:17:13.219Z,27.70
2022-09-28T07:18:03.257Z,27.60
2022-09-28T07:18:59.751Z,26.80
2022-09-28T07:20:06.949Z,30.20
2022-09-28T07:21:00.743Z,26.60
2022-09-28T07:22:05.168Z,24.30
2022-09-28T07:23:13.083Z,26.80
2022-09-28T07:24:00.693Z,23.50
2022-09-28T07:24:59.680Z,27.50
2022-09-28T07:25:59.684Z,27.70
2022-09-28T07:26:59.650Z,27.30
2022-09-28T07:27:59.647Z,26.70
2022-09-28T07:28:59.646Z,30.10
2022-09-28T07:29:59.618Z,23.40
2022-09-28T07:30:59.666Z,25.60
2022-09-28T07:31:59.609Z,26.20
2022-09-28T07:32:59.580Z,24.00
2022-09-28T07:33:59.569Z,20.80
2022-09-28T07:34:59.560Z,24.50
2022-09-28T07:35:59.560Z,22.00
2022-09-28T07:36:59.549Z,21.70
2022-09-28T07:37:59.519Z,20.80
2022-09-28T07:38:59.501Z,19.80
2022-09-28T07:39:59.489Z,23.00
2022-09-28T07:40:59.523Z,23.20
2022-09-28T07:42:02.552Z,25.00
2022-09-28T07:42:59.448Z,21.80
2022-09-28T07:43:59.438Z,21.50
2022-09-28T07:44:59.428Z,25.40
2022-09-28T07:46:00.352Z,25.00
2022-09-28T07:46:59.398Z,25.80
2022-09-28T07:47:59.432Z,21.60
2022-09-28T07:48:59.379Z,22.40
2022-09-28T07:49:59.378Z,24.70
2022-09-28T07:50:59.358Z,21.80
2022-09-28T07:51:59.338Z,22.10
2022-09-28T07:52:59.348Z,23.90
2022-09-28T07:53:59.307Z,24.30
2022-09-28T07:55:01.306Z,22.80
2022-09-28T07:56:00.296Z,22.80
2022-09-28T07:56:59.299Z,23.20
2022-09-28T07:57:59.258Z,22.20
2022-09-28T07:58:59.336Z,23.70
2022-09-28T07:59:59.243Z,21.40
2022-09-28T08:00:59.286Z,21.70
2022-09-28T08:01:59.256Z,25.30
2022-09-28T08:02:59.196Z,22.10
2022-09-28T08:03:59.186Z,22.20
2022-09-28T08:04:59.175Z,24.20
2022-09-28T08:05:59.168Z,20.90
2022-09-28T08:06:59.145Z,21.60
2022-09-28T08:07:59.134Z,20.90
2022-09-28T08:08:59.124Z,21.20
2022-09-28T08:09:59.106Z,19.80
2022-09-28T08:10:59.124Z,19.40
2022-09-28T08:11:59.085Z,21.20
2022-09-28T08:13:02.030Z,21.50
2022-09-28T08:13:59.054Z,22.00
2022-09-28T08:14:59.045Z,19.20
2022-09-28T08:15:59.043Z,19.40
2022-09-28T08:16:59.022Z,18.50
2022-09-28T08:18:02.066Z,20.70
2022-09-28T08:18:59.014Z,28.30
2022-09-28T08:19:58.980Z,23.00
2022-09-28T08:20:58.979Z,20.90
2022-09-28T08:21:58.968Z,21.50
2022-09-28T08:22:58.952Z,18.50
2022-09-28T08:23:58.928Z,21.40
2022-09-28T08:24:58.972Z,21.60
2022-09-28T08:25:58.918Z,24.20
2022-09-28T08:26:58.884Z,21.30
2022-09-28T08:27:58.863Z,19.50
2022-09-28T08:28:58.861Z,20.20
2022-09-28T08:29:58.842Z,18.70
2022-09-28T08:30:58.979Z,19.40
2022-09-28T08:32:01.531Z,23.00
2022-09-28T08:32:58.809Z,19.80
2022-09-28T08:33:58.791Z,20.80
2022-09-28T08:34:58.784Z,19.60
2022-09-28T08:35:58.772Z,20.90
2022-09-28T08:36:58.752Z,22.90
2022-09-28T08:37:58.732Z,20.20
2022-09-28T08:38:58.745Z,20.10
2022-09-28T08:39:58.715Z,19.20
2022-09-28T08:40:58.755Z,19.50
2022-09-28T08:41:58.698Z,20.10
2022-09-28T08:42:58.682Z,20.00
2022-09-28T08:43:58.665Z,21.80
2022-09-28T08:44:58.653Z,23.90
2022-09-28T08:45:58.711Z,20.40
2022-09-28T08:46:58.635Z,22.10
2022-09-28T08:47:58.610Z,24.60
2022-09-28T08:49:20.746Z,20.90
2022-09-28T08:49:59.588Z,23.40
2022-09-28T08:50:58.580Z,20.50
2022-09-28T08:51:58.551Z,25.20
2022-09-28T08:52:58.580Z,24.70
2022-09-28T08:53:58.532Z,25.80
2022-09-28T08:54:58.574Z,21.30
2022-09-28T08:55:58.539Z,26.30
2022-09-28T08:56:58.500Z,20.90
2022-09-28T08:57:58.484Z,21.80
2022-09-28T08:58:58.479Z,23.40
2022-09-28T08:59:58.468Z,22.90
2022-09-28T09:00:58.496Z,24.00
2022-09-28T09:01:58.553Z,27.10
2022-09-28T09:02:58.579Z,29.90
2022-09-28T09:03:58.399Z,32.00
2022-09-28T09:04:58.388Z,23.00
2022-09-28T09:05:58.378Z,21.30
2022-09-28T09:06:58.358Z,20.40
2022-09-28T09:07:58.350Z,20.40
2022-09-28T09:08:58.338Z,24.00
2022-09-28T09:09:58.327Z,22.10
2022-09-28T09:10:58.308Z,24.80
2022-09-28T09:11:58.300Z,22.90
2022-09-28T09:12:58.284Z,24.40
2022-09-28T09:13:58.276Z,23.90
2022-09-28T09:14:58.258Z,29.10
2022-09-28T09:15:58.423Z,19.50
2022-09-28T09:17:00.464Z,32.40
2022-09-28T09:17:58.217Z,17.60
2022-09-28T09:18:58.210Z,19.10
2022-09-28T09:19:58.197Z,19.70
2022-09-28T09:20:58.188Z,20.20
2022-09-28T09:21:58.167Z,22.90
2022-09-28T09:22:58.158Z,22.70
2022-09-28T09:23:58.146Z,22.90
2022-09-28T09:24:58.127Z,22.80
2022-09-28T09:25:58.136Z,21.60
2022-09-28T09:26:58.105Z,21.60
2022-09-28T09:27:58.095Z,19.80
2022-09-28T09:28:58.077Z,24.30
2022-09-28T09:29:58.069Z,23.10
2022-09-28T09:30:58.132Z,24.40
2022-09-28T09:31:58.045Z,19.10
2022-09-28T09:32:58.041Z,27.60
2022-09-28T09:33:58.017Z,21.70
2022-09-28T09:34:58.007Z,21.00
2022-09-28T09:35:58.013Z,28.60
2022-09-28T09:36:57.998Z,18.90
2022-09-28T09:37:58.733Z,20.50
2022-09-28T09:38:57.948Z,16.80
2022-09-28T09:39:57.936Z,25.50
2022-09-28T09:40:58.029Z,37.60
2022-09-28T09:41:57.914Z,17.90
2022-09-28T09:42:57.895Z,33.40
2022-09-28T09:43:57.895Z,25.70
2022-09-28T09:44:57.875Z,17.50
2022-09-28T09:45:57.939Z,16.70
2022-09-28T09:46:57.846Z,17.40
2022-09-28T09:47:57.836Z,20.60
2022-09-28T09:48:57.815Z,30.10
2022-09-28T09:49:57.814Z,24.90
2022-09-28T09:50:57.806Z,216.00
2022-09-28T09:51:57.786Z,14.40
2022-09-28T09:52:57.766Z,18.20
2022-09-28T09:53:57.756Z,25.00
2022-09-28T09:54:57.736Z,18.40
2022-09-28T09:55:57.754Z,17.10
2022-09-28T09:56:57.719Z,14.50
2022-09-28T09:57:57.704Z,54.10
2022-09-28T09:58:57.684Z,130.90
2022-09-28T09:59:57.675Z,300.30
2022-09-28T10:00:57.710Z,316.10
2022-09-28T10:01:57.749Z,469.40
2022-09-28T10:02:57.713Z,280.40
2022-09-28T10:03:57.952Z,15.30
2022-09-28T10:04:57.603Z,16.40
2022-09-28T10:05:57.784Z,13.10
2022-09-28T10:06:57.584Z,13.50
2022-09-28T10:07:57.574Z,14.80
2022-09-28T10:08:57.554Z,14.20
2022-09-28T10:09:57.559Z,20.40
2022-09-28T10:10:57.548Z,15.10
2022-09-28T10:11:57.523Z,15.00
2022-09-28T10:12:57.513Z,17.50
2022-09-28T10:13:57.504Z,14.30
2022-09-28T10:14:57.484Z,15.10
2022-09-28T10:15:57.495Z,15.00
2022-09-28T10:16:57.483Z,15.50
2022-09-28T10:17:57.457Z,36.60
2022-09-28T10:18:57.433Z,14.40
2022-09-28T10:19:57.422Z,15.80
2022-09-28T10:20:57.443Z,12.20
2022-09-28T10:21:57.393Z,13.40
2022-09-28T10:22:57.373Z,11.80
2022-09-28T10:23:57.376Z,11.30
2022-09-28T10:24:57.353Z,15.50
2022-09-28T10:25:57.364Z,14.50
2022-09-28T10:26:57.326Z,19.10
2022-09-28T10:27:57.321Z,18.50
2022-09-28T10:28:57.293Z,13.50
2022-09-28T10:29:57.283Z,25.70
2022-09-28T10:30:57.354Z,14.60
2022-09-28T10:31:57.264Z,24.50
2022-09-28T10:32:57.243Z,11.50
2022-09-28T10:33:57.233Z,11.30
2022-09-28T10:34:57.222Z,12.50
2022-09-28T10:35:57.222Z,11.20
2022-09-28T10:36:57.202Z,10.20
2022-09-28T10:37:57.194Z,10.10
2022-09-28T10:38:57.164Z,12.40
2022-09-28T10:39:57.171Z,10.70
2022-09-28T10:40:57.167Z,13.10
2022-09-28T10:41:57.142Z,9.60
2022-09-28T10:42:57.112Z,10.50
2022-09-28T10:43:58.182Z,10.70
2022-09-28T10:44:57.090Z,10.60
2022-09-28T10:45:57.117Z,10.40
2022-09-28T10:47:04.127Z,8.80
2022-09-28T10:47:57.056Z,10.80
2022-09-28T10:48:57.080Z,9.60
2022-09-28T10:49:57.033Z,10.80
2022-09-28T10:50:57.016Z,11.10
2022-09-28T10:51:57.021Z,13.60
2022-09-28T10:52:56.985Z,10.60
2022-09-28T10:53:56.975Z,10.20
2022-09-28T10:54:56.964Z,11.00
2022-09-28T10:55:56.945Z,10.60
2022-09-28T10:56:56.944Z,10.70
2022-09-28T10:57:56.945Z,8.80
2022-09-28T10:58:56.946Z,10.90
2022-09-28T10:59:56.904Z,10.90
2022-09-28T11:00:56.929Z,8.10
2022-09-28T11:01:56.902Z,8.20
2022-09-28T11:02:56.871Z,9.20
2022-09-28T11:03:56.845Z,8.90
2022-09-28T11:04:56.833Z,10.80
2022-09-28T11:05:56.828Z,30.00
2022-09-28T11:06:56.867Z,11.50
2022-09-28T11:07:56.804Z,7.10
2022-09-28T11:08:56.786Z,7.80
2022-09-28T11:09:56.784Z,9.20
2022-09-28T11:10:56.754Z,22.60
2022-09-28T11:11:56.745Z,9.00
2022-09-28T11:12:56.725Z,7.20
2022-09-28T11:13:56.714Z,8.10
2022-09-28T11:14:56.704Z,8.50
2022-09-28T11:15:56.684Z,9.80
2022-09-28T11:16:56.722Z,19.20
2022-09-28T11:17:56.654Z,10.90
2022-09-28T11:18:56.653Z,5.90
2022-09-28T11:19:56.635Z,6.80
2022-09-28T11:20:56.633Z,6.90
2022-09-28T11:21:56.623Z,8.00
2022-09-28T11:22:56.593Z,8.30
2022-09-28T11:23:56.584Z,6.10
2022-09-28T11:24:56.574Z,6.70
2022-09-28T11:25:56.554Z,7.80
2022-09-28T11:26:56.559Z,8.20
2022-09-28T11:27:56.581Z,5.90
2022-09-28T11:28:56.534Z,8.30
2022-09-28T11:29:56.504Z,7.10
2022-09-28T11:30:56.534Z,5.70
2022-09-28T11:31:56.495Z,3.80
2022-09-28T11:32:56.465Z,8.80
2022-09-28T11:33:56.453Z,6.40
2022-09-28T11:34:59.586Z,4.70
2022-09-28T11:35:56.423Z,6.00
2022-09-28T11:36:59.635Z,5.30
2022-09-28T11:37:57.394Z,5.00
2022-09-28T11:38:56.386Z,5.40
2022-09-28T11:39:56.364Z,6.10
2022-09-28T11:40:56.436Z,3.40
2022-09-28T11:41:56.359Z,4.10
2022-09-28T11:42:56.398Z,5.00
2022-09-28T11:43:56.322Z,3.60
2022-09-28T11:44:56.312Z,5.70
2022-09-28T11:45:56.368Z,4.40
2022-09-28T11:46:56.294Z,3.40
2022-09-28T11:47:56.283Z,4.10
2022-09-28T11:48:56.263Z,5.70
2022-09-28T11:49:56.244Z,5.20
2022-09-28T11:50:56.234Z,5.60
2022-09-28T11:51:56.235Z,6.00
2022-09-28T11:52:56.214Z,3.60
2022-09-28T11:53:56.195Z,3.80
2022-09-28T11:54:56.184Z,4.10
2022-09-28T11:55:56.164Z,3.40
2022-09-28T11:56:56.184Z,4.30
2022-09-28T11:57:56.143Z,4.50
2022-09-28T11:58:56.133Z,5.00
2022-09-28T11:59:56.114Z,3.40
2022-09-28T12:00:56.122Z,4.20
2022-09-28T12:01:56.102Z,3.00
2022-09-28T12:02:56.177Z,5.50
2022-09-28T12:03:56.065Z,4.80
2022-09-28T12:04:56.054Z,4.70
2022-09-28T12:05:56.033Z,5.40
2022-09-28T12:06:56.116Z,4.60
2022-09-28T12:07:56.003Z,5.00
2022-09-28T12:08:56.016Z,5.60
2022-09-28T12:09:55.987Z,4.30
2022-09-28T12:10:55.974Z,4.70
2022-09-28T12:11:55.971Z,6.50
2022-09-28T12:12:55.962Z,4.30
2022-09-28T12:13:55.924Z,3.40
2022-09-28T12:14:55.914Z,6.50
2022-09-28T12:17:07.118Z,4.10
2022-09-28T12:17:56.922Z,5.20
2022-09-28T12:18:55.926Z,5.90
2022-09-28T12:19:55.852Z,4.00
2022-09-28T12:20:55.833Z,3.60
2022-09-28T12:21:55.835Z,8.70
2022-09-28T12:22:55.945Z,4.00
2022-09-28T12:23:55.793Z,2.80
2022-09-28T12:24:55.783Z,3.30
2022-09-28T12:25:55.772Z,2.10
2022-09-28T12:26:55.773Z,2.60
2022-09-28T12:27:55.752Z,2.80
2022-09-28T12:28:55.736Z,11.20
2022-09-28T12:29:55.716Z,3.50
2022-09-28T12:30:55.743Z,2.50
2022-09-28T12:31:55.727Z,4.20
2022-09-28T12:32:55.672Z,2.70
2022-09-28T12:33:55.670Z,2.80
2022-09-28T12:34:55.653Z,3.00
2022-09-28T12:35:55.687Z,2.10
2022-09-28T12:36:55.642Z,4.20
2022-09-28T12:37:55.613Z,3.40
2022-09-28T12:39:17.497Z,3.30
2022-09-28T12:39:58.333Z,5.60
2022-09-28T12:40:55.651Z,2.80
2022-09-28T12:41:55.574Z,4.80
2022-09-28T12:42:55.552Z,3.70
2022-09-28T12:43:55.533Z,3.30
2022-09-28T12:44:59.276Z,4.80
2022-09-28T12:46:10.907Z,2.90
2022-09-28T12:46:56.575Z,2.10
2022-09-28T12:47:55.520Z,2.40
2022-09-28T12:49:33.146Z,4.90
2022-09-28T12:50:37.229Z,25.40
2022-09-28T12:50:57.891Z,8.10
2022-09-28T12:51:55.458Z,5.00
2022-09-28T12:52:58.121Z,3.60
2022-09-28T12:53:56.400Z,10.30
2022-09-28T12:54:55.392Z,22.10
2022-09-28T12:55:55.371Z,16.30
2022-09-28T12:56:55.371Z,6.90
2022-09-28T12:57:55.352Z,15.20
2022-09-28T12:58:55.342Z,4.90
2022-09-28T12:59:55.332Z,4.70
2022-09-28T13:00:55.311Z,2.90
2022-09-28T13:01:55.367Z,2.50
2022-09-28T13:02:55.352Z,2.00
2022-09-28T13:03:55.271Z,2.20
2022-09-28T13:04:55.268Z,2.30
2022-09-28T13:05:55.251Z,1.90
2022-09-28T13:06:55.252Z,2.00
2022-09-28T13:07:55.221Z,2.30
2022-09-28T13:08:55.224Z,1.70
2022-09-28T13:09:55.190Z,2.30
2022-09-28T13:10:55.195Z,1.50
2022-09-28T13:11:55.171Z,1.60
2022-09-28T13:12:55.161Z,2.10
2022-09-28T13:13:55.140Z,1.50
2022-09-28T13:14:55.130Z,1.10
2022-09-28T13:15:55.147Z,1.70
2022-09-28T13:16:59.756Z,2.00
2022-09-28T13:17:56.081Z,1.50
2022-09-28T13:18:55.083Z,1.10
2022-09-28T13:19:55.079Z,2.30
2022-09-28T13:20:55.052Z,7.10
2022-09-28T13:21:55.062Z,2.50
2022-09-28T13:22:55.028Z,1.50
2022-09-28T13:24:04.309Z,3.30
2022-09-28T13:24:55.991Z,4.40
2022-09-28T13:25:54.992Z,3.90
2022-09-28T13:26:54.983Z,3.50
2022-09-28T13:27:54.978Z,2.40
2022-09-28T13:28:54.940Z,3.70
2022-09-28T13:29:56.645Z,2.40
2022-09-28T13:30:55.001Z,1.80
2022-09-28T13:31:54.920Z,2.10
2022-09-28T13:32:54.891Z,1.20
2022-09-28T13:33:54.883Z,2.50
2022-09-28T13:34:54.862Z,2.90
2022-09-28T13:35:54.851Z,3.40
2022-09-28T13:36:54.870Z,3.00
2022-09-28T13:37:54.829Z,1.30
2022-09-28T13:38:54.829Z,2.30
2022-09-28T13:39:54.811Z,2.20
2022-09-28T13:40:54.829Z,4.60
2022-09-28T13:41:54.781Z,4.40
2022-09-28T13:42:54.771Z,2.90
2022-09-28T13:43:54.750Z,1.80
2022-09-28T13:44:54.739Z,1.30
2022-09-28T13:45:54.805Z,1.90
2022-09-28T13:46:54.712Z,2.00
2022-09-28T13:47:54.710Z,1.90
2022-09-28T13:48:54.691Z,2.30
2022-09-28T13:49:54.671Z,2.30
2022-09-28T13:50:54.672Z,2.10
2022-09-28T13:51:54.650Z,1.80
2022-09-28T13:52:54.655Z,1.50
2022-09-28T13:53:54.622Z,3.40
2022-09-28T13:54:54.611Z,1.80
2022-09-28T13:55:54.591Z,1.50
2022-09-28T13:56:54.600Z,2.00
2022-09-28T13:57:54.588Z,1.10
2022-09-28T13:58:54.587Z,8.50
2022-09-28T13:59:54.541Z,2.30
2022-09-28T14:00:54.531Z,3.90
2022-09-28T14:01:54.593Z,1.40
2022-09-28T14:02:54.612Z,1.70
2022-09-28T14:03:54.491Z,1.90
2022-09-28T14:04:54.487Z,1.40
2022-09-28T14:05:54.462Z,1.20
2022-09-28T14:06:55.651Z,2.20
2022-09-28T14:07:57.162Z,15.10
2022-09-28T14:08:54.431Z,10.70
2022-09-28T14:09:54.413Z,3.10
2022-09-28T14:10:54.425Z,34.00
2022-09-28T14:11:54.381Z,56.30
2022-09-28T14:12:54.391Z,22.20
2022-09-28T14:13:54.361Z,2.50
2022-09-28T14:14:54.360Z,12.10
2022-09-28T14:15:54.363Z,2.70
2022-09-28T14:16:54.363Z,2.60
2022-09-28T14:17:54.313Z,3.20
2022-09-28T14:18:54.303Z,2.00
2022-09-28T14:19:54.302Z,3.80
2022-09-28T14:20:54.281Z,2.10
2022-09-28T14:21:54.274Z,4.50
2022-09-28T14:22:54.253Z,1.90
2022-09-28T14:23:58.942Z,3.70
2022-09-28T14:24:55.223Z,3.80
2022-09-28T14:25:54.214Z,2.10
2022-09-28T14:26:54.215Z,2.10
2022-09-28T14:27:54.185Z,1.20
2022-09-28T14:28:54.173Z,1.90
2022-09-28T14:29:54.162Z,2.20
2022-09-28T14:30:54.241Z,1.20
2022-09-28T14:31:54.144Z,1.20
2022-09-28T14:32:54.125Z,1.00
2022-09-28T14:33:54.106Z,1.20
2022-09-28T14:34:54.115Z,3.10
2022-09-28T14:35:54.087Z,3.30
2022-09-28T14:36:54.075Z,2.30
2022-09-28T14:37:54.068Z,1.80
2022-09-28T14:38:54.044Z,1.00
2022-09-28T14:39:54.034Z,1.20
2022-09-28T14:40:54.056Z,2.00
2022-09-28T14:41:54.004Z,1.80
2022-09-28T14:42:54.053Z,1.20
2022-09-28T14:43:53.997Z,2.80
2022-09-28T14:44:53.988Z,2.50
2022-09-28T14:45:54.007Z,2.70
2022-09-28T14:46:53.953Z,2.30
2022-09-28T14:47:53.951Z,2.20
2022-09-28T14:48:53.970Z,1.80
2022-09-28T14:49:53.905Z,1.90
2022-09-28T14:50:53.886Z,3.70
2022-09-28T14:51:53.875Z,1.30
2022-09-28T14:52:53.876Z,1.90
2022-09-28T14:53:53.856Z,3.30
2022-09-28T14:54:53.866Z,2.70
2022-09-28T14:55:53.826Z,1.20
2022-09-28T14:56:53.830Z,2.10
2022-09-28T14:57:53.807Z,1.70
2022-09-28T14:58:53.789Z,3.30
2022-09-28T14:59:53.779Z,1.90
2022-09-28T15:00:53.771Z,3.10
2022-09-28T15:01:53.757Z,1.90
2022-09-28T15:02:53.747Z,1.40
2022-09-28T15:03:53.793Z,3.40
2022-09-28T15:04:53.772Z,4.50
2022-09-28T15:05:53.760Z,2.20
2022-09-28T15:06:53.689Z,1.90
2022-09-28T15:07:53.677Z,1.10
2022-09-28T15:08:53.659Z,2.60
2022-09-28T15:09:53.759Z,3.90
2022-09-28T15:10:53.641Z,2.50
2022-09-28T15:11:53.628Z,2.50
2022-09-28T15:12:53.637Z,2.10
2022-09-28T15:13:53.597Z,1.40
2022-09-28T15:14:53.590Z,2.00
2022-09-28T15:15:53.596Z,1.80
2022-09-28T15:16:53.567Z,4.20
2022-09-28T15:17:53.560Z,5.30
2022-09-28T15:18:53.538Z,3.30
2022-09-28T15:19:53.519Z,6.20
2022-09-28T15:20:53.518Z,18.80
2022-09-28T15:21:53.499Z,4.60
2022-09-28T15:22:53.499Z,3.10
2022-09-28T15:23:53.469Z,1.10
2022-09-28T15:24:53.469Z,4.50
2022-09-28T15:25:53.449Z,0.80
2022-09-28T15:26:53.440Z,1.90
2022-09-28T15:27:53.431Z,2.50
2022-09-28T15:28:53.419Z,1.80
2022-09-28T15:29:53.400Z,2.10
2022-09-28T15:30:53.404Z,3.00
2022-09-28T15:31:54.610Z,0.70
2022-09-28T15:32:53.400Z,1.60
2022-09-28T15:33:53.351Z,1.70
2022-09-28T15:34:53.342Z,1.30
2022-09-28T15:35:53.343Z,2.30
2022-09-28T15:36:53.312Z,2.90
2022-09-28T15:37:53.313Z,3.50
2022-09-28T15:38:53.290Z,2.10
2022-09-28T15:39:53.281Z,3.60
2022-09-28T15:40:53.330Z,2.70
2022-09-28T15:41:53.245Z,3.80
2022-09-28T15:42:57.103Z,3.00
2022-09-28T15:43:54.220Z,2.60
2022-09-28T15:44:53.211Z,4.20
2022-09-28T15:45:53.212Z,2.60
2022-09-28T15:46:53.199Z,1.90
2022-09-28T15:47:53.182Z,3.40
2022-09-28T15:48:53.171Z,3.50
2022-09-28T15:49:53.141Z,2.40
2022-09-28T15:50:53.131Z,2.80
2022-09-28T15:51:53.120Z,1.80
2022-09-28T15:52:53.130Z,1.60
2022-09-28T15:53:53.112Z,1.70
2022-09-28T15:54:53.081Z,3.20
2022-09-28T15:55:53.093Z,2.70
2022-09-28T15:56:53.060Z,2.50
2022-09-28T15:57:53.042Z,2.00
2022-09-28T15:58:53.051Z,1.50
2022-09-28T15:59:53.012Z,2.40
2022-09-28T16:00:53.021Z,2.30
2022-09-28T16:01:53.041Z,2.00
2022-09-28T16:02:53.059Z,14.40
2022-09-28T16:03:52.961Z,5.60
2022-09-28T16:04:52.952Z,2.30
2022-09-28T16:05:52.954Z,5.90
2022-09-28T16:06:52.929Z,8.30
2022-09-28T16:07:56.055Z,6.50
2022-09-28T16:08:52.900Z,5.40
2022-09-28T16:09:52.881Z,21.70
2022-09-28T16:10:52.880Z,7.60
2022-09-28T16:11:52.891Z,6.00
2022-09-28T16:12:52.880Z,11.90
2022-09-28T16:13:52.851Z,6.80
2022-09-28T16:14:52.845Z,15.50
2022-09-28T16:15:52.835Z,12.40
2022-09-28T16:16:52.800Z,17.30
2022-09-28T16:17:52.801Z,7.90
2022-09-28T16:18:52.772Z,5.70
2022-09-28T16:19:52.751Z,8.90
2022-09-28T16:20:52.803Z,9.60
2022-09-28T16:21:52.721Z,12.50
2022-09-28T16:22:52.722Z,10.10
2022-09-28T16:23:52.710Z,8.20
2022-09-28T16:24:52.690Z,16.40
2022-09-28T16:25:52.680Z,7.40
2022-09-28T16:26:52.681Z,26.30
2022-09-28T16:27:52.650Z,6.20
2022-09-28T16:28:52.664Z,11.80
2022-09-28T16:29:52.621Z,5.90
2022-09-28T16:30:52.651Z,7.40
2022-09-28T16:31:52.654Z,6.70
2022-09-28T16:32:52.591Z,6.50
2022-09-28T16:33:52.578Z,5.50
2022-09-28T16:34:52.561Z,9.20
2022-09-28T16:35:52.551Z,4.60
2022-09-28T16:36:52.541Z,5.20
2022-09-28T16:37:52.520Z,6.10
2022-09-28T16:38:52.529Z,6.60
2022-09-28T16:39:52.497Z,8.30
2022-09-28T16:40:52.548Z,6.50
2022-09-28T16:41:52.489Z,7.30
2022-09-28T16:42:52.459Z,7.00
2022-09-28T16:43:52.487Z,7.10
2022-09-28T16:44:52.436Z,8.30
2022-09-28T16:45:52.485Z,7.30
2022-09-28T16:46:52.484Z,4.20
2022-09-28T16:47:59.508Z,5.10
2022-09-28T16:48:52.374Z,7.60
2022-09-28T16:49:52.373Z,7.50
2022-09-28T16:50:52.351Z,5.10
2022-09-28T16:51:52.345Z,5.10
2022-09-28T16:52:54.795Z,5.90
2022-09-28T16:53:52.323Z,6.40
2022-09-28T16:54:52.313Z,5.30
2022-09-28T16:55:52.295Z,5.30
2022-09-28T16:56:52.277Z,4.40
2022-09-28T16:57:52.265Z,5.30
2022-09-28T16:58:52.262Z,5.50
2022-09-28T16:59:52.243Z,4.60
2022-09-28T17:00:52.224Z,5.70
2022-09-28T17:01:52.243Z,6.30
2022-09-28T17:02:52.208Z,5.30
2022-09-28T17:03:52.191Z,5.80
2022-09-28T17:04:52.171Z,6.50
2022-09-28T17:05:52.161Z,7.10
2022-09-28T17:06:52.143Z,8.90
2022-09-28T17:07:52.131Z,6.10
2022-09-28T17:08:52.131Z,5.80
2022-09-28T17:09:52.111Z,7.00
2022-09-28T17:11:13.136Z,7.60
2022-09-28T17:11:53.081Z,6.30
2022-09-28T17:12:52.076Z,6.70
2022-09-28T17:13:52.105Z,8.10
2022-09-28T17:14:52.040Z,8.50
2022-09-28T17:15:52.070Z,8.30
2022-09-28T17:17:07.314Z,8.80
2022-09-28T17:17:53.001Z,6.70
2022-09-28T17:18:52.020Z,8.00
2022-09-28T17:19:51.979Z,3.80
2022-09-28T17:20:51.961Z,6.10
2022-09-28T17:21:51.950Z,7.90
2022-09-28T17:22:51.940Z,4.90
2022-09-28T17:23:51.939Z,5.00
2022-09-28T17:24:51.913Z,5.20
2022-09-28T17:25:51.899Z,6.00
2022-09-28T17:26:51.886Z,6.30
2022-09-28T17:27:51.879Z,6.00
2022-09-28T17:28:51.867Z,4.70
2022-09-28T17:29:51.851Z,4.70
2022-09-28T17:30:51.892Z,4.30
2022-09-28T17:31:51.820Z,6.50
2022-09-28T17:32:51.807Z,3.90
2022-09-28T17:33:51.809Z,5.60
2022-09-28T17:35:06.445Z,5.60
2022-09-28T17:35:52.788Z,6.90